createdAt,value
2019-02-10T00:00:37.738Z,1001.52
2019-02-10T00:01:37.555Z,1001.49
2019-02-10T00:02:37.563Z,1001.45
2019-02-10T00:03:37.538Z,1001.43
2019-02-10T00:04:37.546Z,1001.42
2019-02-10T00:05:37.517Z,1001.39
2019-02-10T00:06:37.568Z,1001.36
2019-02-10T00:07:37.495Z,1001.41
2019-02-10T00:08:37.515Z,1001.36
2019-02-10T00:09:37.475Z,1001.30
2019-02-10T00:10:37.464Z,1001.32
2019-02-10T00:11:37.483Z,1001.31
2019-02-10T00:12:37.723Z,1001.28
2019-02-10T00:13:37.440Z,1001.25
2019-02-10T00:14:37.436Z,1001.19
2019-02-10T00:15:37.409Z,1001.16
2019-02-10T00:16:37.463Z,1001.17
2019-02-10T00:17:37.384Z,1001.17
2019-02-10T00:18:37.385Z,1001.16
2019-02-10T00:19:37.362Z,1001.15
2019-02-10T00:20:37.354Z,1001.10
2019-02-10T00:21:37.361Z,1001.09
2019-02-10T00:22:37.397Z,1001.11
2019-02-10T00:23:37.325Z,1001.11
2019-02-10T00:24:37.432Z,1001.10
2019-02-10T00:25:37.327Z,1001.11
2019-02-10T00:26:37.311Z,1001.11
2019-02-10T00:27:37.377Z,1001.00
2019-02-10T00:28:37.278Z,1001.00
2019-02-10T00:29:37.256Z,1000.94
2019-02-10T00:30:37.246Z,1000.89
2019-02-10T00:31:37.241Z,1000.86
2019-02-10T00:32:37.316Z,1000.79
2019-02-10T00:33:37.215Z,1000.78
2019-02-10T00:34:37.282Z,1000.73
2019-02-10T00:35:37.194Z,1000.71
2019-02-10T00:36:37.187Z,1000.67
2019-02-10T00:37:37.181Z,1000.67
2019-02-10T00:38:37.185Z,1000.61
2019-02-10T00:39:37.161Z,1000.61
2019-02-10T00:40:37.169Z,1000.56
2019-02-10T00:41:37.129Z,1000.56
2019-02-10T00:42:37.118Z,1000.51
2019-02-10T00:43:37.150Z,1000.51
2019-02-10T00:44:37.103Z,1000.50
2019-02-10T00:45:37.097Z,1000.49
2019-02-10T00:46:37.179Z,1000.43
2019-02-10T00:47:37.105Z,1000.45
2019-02-10T00:48:37.055Z,1000.48
2019-02-10T00:49:37.068Z,1000.41
2019-02-10T00:50:37.067Z,1000.31
2019-02-10T00:51:37.020Z,1000.38
2019-02-10T00:52:37.009Z,1000.40
2019-02-10T00:53:37.018Z,1000.36
2019-02-10T00:54:37.025Z,1000.34
2019-02-10T00:55:37.026Z,1000.30
2019-02-10T00:56:36.982Z,1000.29
2019-02-10T00:57:36.979Z,1000.22
2019-02-10T00:58:36.952Z,1000.16
2019-02-10T00:59:37.040Z,1000.21
2019-02-10T01:00:36.936Z,1000.17
2019-02-10T01:01:36.917Z,1000.11
2019-02-10T01:02:36.911Z,1000.15
2019-02-10T01:03:36.890Z,1000.20
2019-02-10T01:04:36.891Z,1000.19
2019-02-10T01:05:37.011Z,1000.07
2019-02-10T01:06:41.443Z,1000.04
2019-02-10T01:07:36.852Z,999.97
2019-02-10T01:08:36.856Z,1000.00
2019-02-10T01:09:36.830Z,999.98
2019-02-10T01:10:36.851Z,999.87
2019-02-10T01:11:36.809Z,999.89
2019-02-10T01:12:36.795Z,999.83
2019-02-10T01:13:36.871Z,999.79
2019-02-10T01:14:36.829Z,999.79
2019-02-10T01:15:36.829Z,999.75
2019-02-10T01:16:36.768Z,999.72
2019-02-10T01:17:36.758Z,999.73
2019-02-10T01:18:36.733Z,999.74
2019-02-10T01:19:36.728Z,999.68
2019-02-10T01:20:36.764Z,999.65
2019-02-10T01:21:36.739Z,999.67
2019-02-10T01:22:36.704Z,999.63
2019-02-10T01:23:36.701Z,999.56
2019-02-10T01:24:36.668Z,999.59
2019-02-10T01:25:36.667Z,999.55
2019-02-10T01:26:36.903Z,999.48
2019-02-10T01:27:36.635Z,999.45
2019-02-10T01:28:36.843Z,999.44
2019-02-10T01:29:36.667Z,999.39
2019-02-10T01:30:36.608Z,999.38
2019-02-10T01:31:36.973Z,999.29
2019-02-10T01:32:37.604Z,999.18
2019-02-10T01:33:36.598Z,999.18
2019-02-10T01:34:36.561Z,999.10
2019-02-10T01:35:36.592Z,999.08
2019-02-10T01:36:36.899Z,999.07
2019-02-10T01:37:36.741Z,999.01
2019-02-10T01:38:36.523Z,999.05
2019-02-10T01:39:36.577Z,999.04
2019-02-10T01:40:36.603Z,999.01
2019-02-10T01:41:36.526Z,999.00
2019-02-10T01:42:36.485Z,998.94
2019-02-10T01:43:36.541Z,998.98
2019-02-10T01:44:36.474Z,998.96
2019-02-10T01:45:36.457Z,998.92
2019-02-10T01:46:36.450Z,998.89
2019-02-10T01:47:36.453Z,998.91
2019-02-10T01:48:36.416Z,998.90
2019-02-10T01:49:36.487Z,998.87
2019-02-10T01:50:36.392Z,998.87
2019-02-10T01:51:36.385Z,998.90
2019-02-10T01:52:36.399Z,998.87
2019-02-10T01:53:36.357Z,998.83
2019-02-10T01:54:36.367Z,998.75
2019-02-10T01:55:36.344Z,998.65
2019-02-10T01:56:36.356Z,998.63
2019-02-10T01:57:36.415Z,998.54
2019-02-10T01:58:36.338Z,998.51
2019-02-10T01:59:36.296Z,998.40
2019-02-10T02:00:36.291Z,998.32
2019-02-10T02:01:36.273Z,998.29
2019-02-10T02:02:36.307Z,998.25
2019-02-10T02:03:36.253Z,998.23
2019-02-10T02:04:36.260Z,998.22
2019-02-10T02:05:36.238Z,998.16
2019-02-10T02:06:36.322Z,998.08
2019-02-10T02:07:36.250Z,998.01
2019-02-10T02:08:36.212Z,998.08
2019-02-10T02:09:36.219Z,998.01
2019-02-10T02:10:36.178Z,997.96
2019-02-10T02:11:36.177Z,997.98
2019-02-10T02:12:44.878Z,997.96
2019-02-10T02:13:36.537Z,997.89
2019-02-10T02:14:36.144Z,997.85
2019-02-10T02:15:36.124Z,997.83
2019-02-10T02:16:36.118Z,997.72
2019-02-10T02:17:36.145Z,997.67
2019-02-10T02:18:36.098Z,997.61
2019-02-10T02:19:36.106Z,997.61
2019-02-10T02:20:36.348Z,997.59
2019-02-10T02:21:36.064Z,997.60
2019-02-10T02:22:36.105Z,997.54
2019-02-10T02:23:36.044Z,997.47
2019-02-10T02:24:36.053Z,997.50
2019-02-10T02:25:36.025Z,997.56
2019-02-10T02:26:36.130Z,997.47
2019-02-10T02:27:36.001Z,997.49
2019-02-10T02:28:36.064Z,997.46
2019-02-10T02:29:36.005Z,997.49
2019-02-10T02:30:35.983Z,997.45
2019-02-10T02:31:35.961Z,997.47
2019-02-10T02:32:36.035Z,997.40
2019-02-10T02:33:35.966Z,997.40
2019-02-10T02:34:35.934Z,997.48
2019-02-10T02:35:35.945Z,997.49
2019-02-10T02:36:35.915Z,997.38
2019-02-10T02:37:35.893Z,997.37
2019-02-10T02:38:35.936Z,997.38
2019-02-10T02:39:35.876Z,997.38
2019-02-10T02:40:35.901Z,997.34
2019-02-10T02:41:35.847Z,997.33
2019-02-10T02:42:35.852Z,997.33
2019-02-10T02:43:35.901Z,997.32
2019-02-10T02:44:35.832Z,997.31
2019-02-10T02:45:36.080Z,997.25
2019-02-10T02:46:35.798Z,997.21
2019-02-10T02:47:35.824Z,997.11
2019-02-10T02:48:35.814Z,997.14
2019-02-10T02:49:35.789Z,997.06
2019-02-10T02:50:35.764Z,997.02
2019-02-10T02:51:35.756Z,997.04
2019-02-10T02:52:35.874Z,996.92
2019-02-10T02:53:35.731Z,996.91
2019-02-10T02:54:35.739Z,996.87
2019-02-10T02:55:35.831Z,996.81
2019-02-10T02:56:35.684Z,996.78
2019-02-10T02:57:35.707Z,996.69
2019-02-10T02:58:35.668Z,996.64
2019-02-10T02:59:35.697Z,996.63
2019-02-10T03:00:35.715Z,996.55
2019-02-10T03:01:35.635Z,996.56
2019-02-10T03:02:35.624Z,996.56
2019-02-10T03:03:35.617Z,996.54
2019-02-10T03:04:35.866Z,996.54
2019-02-10T03:05:35.654Z,996.44
2019-02-10T03:06:35.583Z,996.40
2019-02-10T03:07:35.608Z,996.35
2019-02-10T03:08:35.574Z,996.25
2019-02-10T03:09:35.580Z,996.27
2019-02-10T03:10:35.536Z,996.23
2019-02-10T03:11:35.711Z,996.18
2019-02-10T03:12:35.525Z,996.04
2019-02-10T03:13:35.505Z,996.01
2019-02-10T03:14:35.519Z,996.16
2019-02-10T03:15:35.544Z,996.06
2019-02-10T03:16:35.571Z,996.05
2019-02-10T03:17:35.494Z,996.09
2019-02-10T03:18:35.450Z,996.04
2019-02-10T03:19:35.617Z,996.01
2019-02-10T03:20:35.434Z,995.95
2019-02-10T03:21:35.439Z,995.93
2019-02-10T03:22:35.410Z,995.91
2019-02-10T03:23:35.425Z,995.85
2019-02-10T03:24:35.436Z,995.89
2019-02-10T03:25:35.390Z,995.81
2019-02-10T03:26:35.364Z,995.81
2019-02-10T03:27:35.359Z,995.79
2019-02-10T03:28:35.398Z,995.63
2019-02-10T03:29:35.353Z,995.58
2019-02-10T03:30:35.470Z,995.57
2019-02-10T03:31:35.345Z,995.51
2019-02-10T03:32:35.593Z,995.45
2019-02-10T03:33:35.293Z,995.38
2019-02-10T03:34:35.296Z,995.34
2019-02-10T03:35:35.395Z,995.24
2019-02-10T03:36:35.272Z,995.28
2019-02-10T03:37:35.260Z,995.25
2019-02-10T03:38:35.255Z,995.19
2019-02-10T03:39:35.319Z,995.22
2019-02-10T03:40:35.314Z,995.14
2019-02-10T03:41:35.220Z,995.13
2019-02-10T03:42:35.197Z,995.16
2019-02-10T03:43:35.191Z,995.11
2019-02-10T03:44:35.247Z,995.07
2019-02-10T03:45:35.380Z,995.01
2019-02-10T03:46:35.176Z,995.01
2019-02-10T03:47:35.146Z,994.96
2019-02-10T03:48:35.151Z,994.86
2019-02-10T03:49:35.121Z,994.86
2019-02-10T03:50:35.159Z,994.79
2019-02-10T03:51:35.105Z,994.71
2019-02-10T03:52:35.110Z,994.69
2019-02-10T03:53:35.089Z,994.72
2019-02-10T03:54:35.122Z,994.65
2019-02-10T03:55:35.072Z,994.65
2019-02-10T03:56:35.226Z,994.65
2019-02-10T03:57:35.039Z,994.58
2019-02-10T03:58:35.032Z,994.58
2019-02-10T03:59:35.048Z,994.47
2019-02-10T04:00:35.018Z,994.46
2019-02-10T04:01:35.040Z,994.37
2019-02-10T04:02:35.050Z,994.29
2019-02-10T04:03:34.970Z,994.30
2019-02-10T04:04:34.969Z,994.20
2019-02-10T04:05:34.953Z,994.17
2019-02-10T04:06:34.979Z,994.08
2019-02-10T04:07:36.431Z,994.08
2019-02-10T04:08:34.945Z,994.06
2019-02-10T04:09:34.907Z,994.10
2019-02-10T04:10:34.973Z,994.06
2019-02-10T04:11:34.962Z,993.95
2019-02-10T04:12:34.883Z,993.94
2019-02-10T04:13:34.883Z,993.90
2019-02-10T04:14:34.863Z,993.79
2019-02-10T04:15:34.843Z,993.82
2019-02-10T04:16:34.881Z,993.88
2019-02-10T04:17:34.847Z,993.80
2019-02-10T04:18:34.927Z,993.81
2019-02-10T04:19:34.798Z,993.74
2019-02-10T04:20:34.796Z,993.67
2019-02-10T04:21:34.780Z,993.72
2019-02-10T04:22:34.795Z,993.61
2019-02-10T04:23:34.762Z,993.64
2019-02-10T04:24:34.770Z,993.58
2019-02-10T04:25:34.761Z,993.59
2019-02-10T04:26:34.728Z,993.55
2019-02-10T04:27:34.769Z,993.45
2019-02-10T04:28:34.700Z,993.37
2019-02-10T04:29:34.699Z,993.36
2019-02-10T04:30:34.704Z,993.31
2019-02-10T04:31:34.676Z,993.29
2019-02-10T04:32:34.750Z,993.28
2019-02-10T04:33:34.649Z,993.29
2019-02-10T04:34:34.668Z,993.23
2019-02-10T04:35:34.660Z,993.17
2019-02-10T04:36:34.618Z,993.07
2019-02-10T04:37:34.683Z,993.04
2019-02-10T04:38:34.607Z,993.02
2019-02-10T04:39:34.610Z,992.95
2019-02-10T04:40:34.592Z,992.95
2019-02-10T04:41:34.570Z,992.93
2019-02-10T04:42:34.576Z,992.89
2019-02-10T04:43:34.545Z,992.90
2019-02-10T04:44:34.577Z,992.87
2019-02-10T04:45:34.529Z,992.81
2019-02-10T04:46:34.559Z,992.83
2019-02-10T04:47:34.596Z,992.85
2019-02-10T04:48:34.490Z,992.76
2019-02-10T04:49:34.490Z,992.75
2019-02-10T04:50:34.468Z,992.71
2019-02-10T04:51:34.525Z,992.72
2019-02-10T04:52:34.450Z,992.65
2019-02-10T04:53:34.480Z,992.63
2019-02-10T04:54:34.422Z,992.59
2019-02-10T04:55:34.564Z,992.61
2019-02-10T04:56:34.404Z,992.53
2019-02-10T04:57:34.393Z,992.38
2019-02-10T04:58:34.439Z,992.35
2019-02-10T04:59:34.455Z,992.37
2019-02-10T05:00:34.366Z,992.41
2019-02-10T05:01:34.362Z,992.28
2019-02-10T05:02:34.373Z,992.26
2019-02-10T05:03:34.378Z,992.26
2019-02-10T05:04:34.316Z,992.21
2019-02-10T05:05:34.392Z,992.16
2019-02-10T05:06:34.387Z,992.19
2019-02-10T05:07:34.286Z,992.00
2019-02-10T05:08:34.314Z,992.00
2019-02-10T05:09:34.278Z,992.00
2019-02-10T05:10:34.257Z,992.01
2019-02-10T05:11:34.261Z,991.97
2019-02-10T05:12:34.305Z,991.89
2019-02-10T05:13:34.221Z,991.86
2019-02-10T05:14:34.248Z,991.86
2019-02-10T05:15:34.207Z,991.79
2019-02-10T05:16:34.191Z,991.81
2019-02-10T05:17:34.183Z,991.81
2019-02-10T05:18:34.206Z,991.82
2019-02-10T05:19:34.187Z,991.73
2019-02-10T05:20:34.158Z,991.75
2019-02-10T05:21:34.283Z,991.71
2019-02-10T05:22:34.129Z,991.70
2019-02-10T05:23:34.119Z,991.64
2019-02-10T05:24:34.150Z,991.53
2019-02-10T05:25:34.156Z,991.55
2019-02-10T05:26:34.118Z,991.40
2019-02-10T05:27:34.217Z,991.43
2019-02-10T05:28:34.066Z,991.51
2019-02-10T05:29:34.123Z,991.44
2019-02-10T05:30:34.053Z,991.47
2019-02-10T05:31:34.063Z,991.47
2019-02-10T05:32:34.017Z,991.38
2019-02-10T05:33:34.021Z,991.36
2019-02-10T05:34:34.049Z,991.36
2019-02-10T05:35:34.037Z,991.40
2019-02-10T05:36:33.985Z,991.25
2019-02-10T05:37:33.975Z,991.30
2019-02-10T05:38:33.965Z,991.19
2019-02-10T05:39:33.983Z,991.27
2019-02-10T05:40:33.939Z,991.26
2019-02-10T05:41:33.990Z,991.14
2019-02-10T05:42:33.912Z,991.14
2019-02-10T05:43:33.922Z,991.15
2019-02-10T05:44:33.962Z,991.10
2019-02-10T05:45:33.901Z,991.05
2019-02-10T05:46:33.905Z,991.06
2019-02-10T05:47:33.879Z,990.95
2019-02-10T05:48:33.891Z,990.88
2019-02-10T05:49:33.869Z,990.88
2019-02-10T05:50:33.856Z,990.86
2019-02-10T05:51:33.838Z,990.94
2019-02-10T05:52:33.812Z,990.84
2019-02-10T05:53:33.807Z,990.81
2019-02-10T05:54:33.830Z,990.74
2019-02-10T05:55:33.824Z,990.61
2019-02-10T05:56:33.808Z,990.66
2019-02-10T05:57:33.797Z,990.61
2019-02-10T05:58:33.749Z,990.57
2019-02-10T05:59:33.737Z,990.51
2019-02-10T06:00:33.761Z,990.48
2019-02-10T06:01:33.712Z,990.39
2019-02-10T06:02:33.793Z,990.47
2019-02-10T06:03:33.777Z,990.36
2019-02-10T06:04:33.681Z,990.46
2019-02-10T06:05:33.679Z,990.32
2019-02-10T06:06:33.733Z,990.39
2019-02-10T06:07:33.646Z,990.26
2019-02-10T06:08:33.644Z,990.21
2019-02-10T06:09:33.694Z,990.36
2019-02-10T06:10:33.617Z,990.25
2019-02-10T06:11:33.630Z,990.15
2019-02-10T06:12:33.769Z,990.25
2019-02-10T06:13:33.610Z,990.23
2019-02-10T06:14:33.605Z,990.21
2019-02-10T06:15:33.621Z,990.17
2019-02-10T06:16:33.583Z,990.07
2019-02-10T06:17:33.565Z,990.10
2019-02-10T06:18:33.548Z,989.88
2019-02-10T06:19:33.534Z,989.87
2019-02-10T06:20:33.513Z,989.92
2019-02-10T06:21:33.538Z,989.93
2019-02-10T06:22:33.493Z,989.84
2019-02-10T06:23:33.483Z,989.80
2019-02-10T06:24:33.467Z,989.74
2019-02-10T06:25:33.513Z,989.81
2019-02-10T06:26:33.487Z,989.85
2019-02-10T06:27:33.473Z,989.80
2019-02-10T06:28:33.437Z,989.76
2019-02-10T06:29:33.429Z,989.78
2019-02-10T06:30:33.404Z,989.81
2019-02-10T06:31:33.396Z,989.65
2019-02-10T06:32:33.407Z,989.63
2019-02-10T06:33:36.399Z,989.67
2019-02-10T06:34:33.369Z,989.66
2019-02-10T06:35:33.377Z,989.52
2019-02-10T06:36:33.345Z,989.55
2019-02-10T06:37:33.502Z,989.54
2019-02-10T06:38:33.319Z,989.61
2019-02-10T06:39:33.310Z,989.54
2019-02-10T06:40:33.307Z,989.49
2019-02-10T06:41:33.306Z,989.39
2019-02-10T06:42:33.314Z,989.44
2019-02-10T06:43:33.263Z,989.36
2019-02-10T06:44:33.273Z,989.36
2019-02-10T06:45:33.238Z,989.43
2019-02-10T06:46:33.229Z,989.35
2019-02-10T06:47:33.258Z,989.31
2019-02-10T06:48:33.230Z,989.25
2019-02-10T06:49:33.208Z,989.28
2019-02-10T06:50:33.237Z,989.12
2019-02-10T06:51:33.178Z,989.18
2019-02-10T06:52:33.255Z,989.19
2019-02-10T06:53:34.763Z,989.21
2019-02-10T06:54:33.190Z,989.19
2019-02-10T06:55:33.150Z,989.14
2019-02-10T06:56:33.142Z,989.10
2019-02-10T06:57:33.135Z,989.02
2019-02-10T06:58:33.177Z,989.00
2019-02-10T06:59:33.181Z,988.99
2019-02-10T07:00:33.129Z,989.09
2019-02-10T07:01:33.156Z,988.99
2019-02-10T07:02:33.102Z,988.98
2019-02-10T07:03:33.048Z,988.93
2019-02-10T07:04:33.041Z,989.02
2019-02-10T07:05:33.056Z,988.96
2019-02-10T07:06:33.021Z,988.96
2019-02-10T07:07:33.037Z,988.92
2019-02-10T07:08:33.073Z,988.88
2019-02-10T07:09:33.003Z,988.95
2019-02-10T07:10:32.979Z,988.86
2019-02-10T07:11:32.963Z,988.82
2019-02-10T07:12:32.960Z,988.78
2019-02-10T07:13:33.014Z,988.84
2019-02-10T07:14:32.972Z,988.84
2019-02-10T07:15:32.924Z,988.86
2019-02-10T07:16:32.934Z,988.79
2019-02-10T07:17:32.901Z,988.81
2019-02-10T07:18:32.975Z,988.84
2019-02-10T07:19:32.882Z,988.79
2019-02-10T07:20:32.892Z,988.76
2019-02-10T07:21:32.899Z,988.75
2019-02-10T07:22:32.853Z,988.73
2019-02-10T07:23:32.893Z,988.77
2019-02-10T07:24:32.823Z,988.73
2019-02-10T07:25:32.825Z,988.74
2019-02-10T07:26:32.801Z,988.74
2019-02-10T07:27:32.799Z,988.78
2019-02-10T07:28:32.839Z,988.72
2019-02-10T07:29:32.912Z,988.75
2019-02-10T07:30:32.792Z,988.79
2019-02-10T07:31:32.755Z,988.70
2019-02-10T07:32:32.744Z,988.65
2019-02-10T07:33:32.756Z,988.72
2019-02-10T07:34:32.778Z,988.61
2019-02-10T07:35:32.705Z,988.73
2019-02-10T07:36:32.710Z,988.54
2019-02-10T07:37:32.691Z,988.51
2019-02-10T07:38:38.452Z,988.51
2019-02-10T07:39:33.701Z,988.55
2019-02-10T07:40:32.670Z,988.54
2019-02-10T07:41:32.639Z,988.51
2019-02-10T07:42:32.678Z,988.57
2019-02-10T07:43:32.628Z,988.57
2019-02-10T07:44:32.647Z,988.54
2019-02-10T07:45:32.699Z,988.49
2019-02-10T07:46:32.589Z,988.46
2019-02-10T07:47:32.586Z,988.48
2019-02-10T07:48:32.648Z,988.44
2019-02-10T07:49:32.560Z,988.35
2019-02-10T07:50:32.559Z,988.26
2019-02-10T07:51:32.559Z,988.30
2019-02-10T07:52:32.612Z,988.38
2019-02-10T07:53:32.530Z,988.32
2019-02-10T07:54:32.504Z,988.26
2019-02-10T07:55:32.506Z,988.27
2019-02-10T07:56:32.519Z,988.30
2019-02-10T07:57:32.499Z,988.15
2019-02-10T07:58:32.465Z,988.29
2019-02-10T07:59:32.539Z,988.19
2019-02-10T08:00:32.450Z,988.26
2019-02-10T08:01:32.464Z,988.18
2019-02-10T08:02:32.414Z,988.27
2019-02-10T08:03:32.449Z,988.20
2019-02-10T08:04:32.411Z,988.26
2019-02-10T08:05:32.410Z,988.23
2019-02-10T08:06:32.383Z,988.29
2019-02-10T08:07:32.426Z,988.13
2019-02-10T08:08:32.377Z,988.20
2019-02-10T08:09:32.381Z,988.11
2019-02-10T08:10:32.330Z,988.21
2019-02-10T08:11:32.402Z,988.24
2019-02-10T08:12:32.538Z,988.15
2019-02-10T08:13:33.192Z,988.10
2019-02-10T08:14:32.310Z,988.12
2019-02-10T08:15:32.321Z,988.00
2019-02-10T08:16:32.266Z,987.97
2019-02-10T08:17:32.312Z,988.09
2019-02-10T08:18:32.300Z,988.09
2019-02-10T08:19:32.244Z,987.98
2019-02-10T08:20:32.232Z,988.00
2019-02-10T08:21:32.218Z,987.97
2019-02-10T08:22:32.275Z,987.88
2019-02-10T08:23:32.212Z,987.92
2019-02-10T08:24:32.188Z,987.95
2019-02-10T08:25:32.183Z,987.98
2019-02-10T08:26:32.229Z,987.89
2019-02-10T08:27:32.237Z,987.79
2019-02-10T08:28:32.172Z,987.81
2019-02-10T08:29:32.171Z,987.78
2019-02-10T08:30:32.134Z,987.71
2019-02-10T08:31:32.117Z,987.63
2019-02-10T08:32:32.100Z,987.56
2019-02-10T08:33:32.380Z,987.51
2019-02-10T08:34:32.083Z,987.57
2019-02-10T08:35:32.709Z,987.53
2019-02-10T08:36:32.061Z,987.49
2019-02-10T08:37:32.064Z,987.49
2019-02-10T08:38:32.102Z,987.48
2019-02-10T08:39:32.042Z,987.44
2019-02-10T08:40:32.027Z,987.47
2019-02-10T08:41:32.036Z,987.45
2019-02-10T08:42:32.001Z,987.45
2019-02-10T08:43:32.033Z,987.57
2019-02-10T08:44:32.037Z,987.49
2019-02-10T08:45:31.968Z,987.53
2019-02-10T08:46:31.976Z,987.49
2019-02-10T08:47:33.674Z,987.48
2019-02-10T08:48:31.972Z,987.40
2019-02-10T08:49:31.950Z,987.48
2019-02-10T08:50:31.908Z,987.51
2019-02-10T08:51:31.897Z,987.40
2019-02-10T08:52:31.949Z,987.43
2019-02-10T08:53:31.882Z,987.44
2019-02-10T08:54:31.884Z,987.37
2019-02-10T08:55:31.875Z,987.29
2019-02-10T08:56:31.852Z,987.30
2019-02-10T08:57:31.840Z,987.27
2019-02-10T08:58:31.823Z,987.27
2019-02-10T08:59:31.838Z,987.31
2019-02-10T09:00:31.798Z,987.29
2019-02-10T09:01:31.805Z,987.23
2019-02-10T09:02:31.829Z,987.23
2019-02-10T09:03:31.806Z,987.21
2019-02-10T09:04:31.788Z,987.19
2019-02-10T09:05:31.746Z,987.18
2019-02-10T09:06:31.765Z,987.16
2019-02-10T09:07:31.768Z,987.16
2019-02-10T09:08:31.728Z,987.14
2019-02-10T09:09:31.814Z,987.08
2019-02-10T09:10:31.692Z,987.08
2019-02-10T09:11:31.683Z,987.08
2019-02-10T09:12:31.673Z,987.07
2019-02-10T09:13:31.667Z,987.09
2019-02-10T09:14:31.740Z,986.98
2019-02-10T09:15:31.656Z,986.97
2019-02-10T09:16:31.647Z,986.99
2019-02-10T09:17:31.639Z,986.93
2019-02-10T09:18:31.645Z,986.93
2019-02-10T09:19:31.675Z,986.86
2019-02-10T09:20:31.628Z,986.83
2019-02-10T09:21:31.579Z,986.92
2019-02-10T09:22:31.616Z,986.73
2019-02-10T09:23:31.561Z,986.72
2019-02-10T09:24:31.599Z,986.91
2019-02-10T09:25:31.562Z,986.74
2019-02-10T09:26:31.555Z,986.76
2019-02-10T09:27:31.565Z,986.83
2019-02-10T09:28:31.508Z,986.70
2019-02-10T09:29:31.492Z,986.69
2019-02-10T09:30:31.482Z,986.77
2019-02-10T09:31:33.182Z,986.86
2019-02-10T09:32:31.550Z,986.72
2019-02-10T09:33:31.484Z,986.66
2019-02-10T09:34:31.448Z,986.68
2019-02-10T09:35:31.455Z,986.71
2019-02-10T09:36:31.463Z,986.71
2019-02-10T09:37:31.721Z,986.66
2019-02-10T09:38:31.516Z,986.62
2019-02-10T09:39:31.411Z,986.63
2019-02-10T09:40:31.408Z,986.63
2019-02-10T09:41:31.387Z,986.55
2019-02-10T09:42:31.441Z,986.48
2019-02-10T09:43:31.338Z,986.50
2019-02-10T09:44:31.346Z,986.51
2019-02-10T09:45:31.547Z,986.53
2019-02-10T09:46:31.329Z,986.45
2019-02-10T09:47:31.341Z,986.44
2019-02-10T09:48:31.352Z,986.46
2019-02-10T09:49:31.307Z,986.46
2019-02-10T09:50:31.270Z,986.46
2019-02-10T09:51:31.255Z,986.34
2019-02-10T09:52:31.288Z,986.42
2019-02-10T09:53:31.378Z,986.38
2019-02-10T09:54:31.257Z,986.35
2019-02-10T09:55:31.254Z,986.26
2019-02-10T09:56:31.204Z,986.23
2019-02-10T09:57:31.305Z,986.29
2019-02-10T09:58:31.188Z,986.35
2019-02-10T09:59:31.175Z,986.28
2019-02-10T10:00:31.189Z,986.35
2019-02-10T10:01:31.156Z,986.27
2019-02-10T10:02:31.283Z,986.18
2019-02-10T10:03:31.127Z,986.28
2019-02-10T10:04:31.231Z,986.23
2019-02-10T10:05:31.120Z,986.15
2019-02-10T10:06:31.132Z,986.17
2019-02-10T10:07:31.084Z,986.20
2019-02-10T10:08:31.112Z,986.15
2019-02-10T10:09:31.498Z,986.10
2019-02-10T10:10:31.108Z,986.11
2019-02-10T10:11:31.062Z,986.10
2019-02-10T10:12:31.064Z,986.06
2019-02-10T10:13:31.152Z,986.07
2019-02-10T10:14:31.216Z,986.06
2019-02-10T10:15:31.016Z,986.06
2019-02-10T10:16:31.209Z,985.96
2019-02-10T10:17:30.980Z,986.02
2019-02-10T10:18:30.966Z,986.00
2019-02-10T10:19:31.059Z,985.98
2019-02-10T10:20:30.950Z,985.99
2019-02-10T10:21:30.938Z,985.99
2019-02-10T10:22:30.957Z,985.86
2019-02-10T10:23:30.960Z,985.79
2019-02-10T10:24:30.970Z,985.85
2019-02-10T10:25:30.922Z,985.86
2019-02-10T10:26:30.881Z,985.88
2019-02-10T10:27:30.877Z,985.90
2019-02-10T10:28:30.876Z,985.92
2019-02-10T10:29:30.897Z,985.88
2019-02-10T10:30:30.894Z,985.84
2019-02-10T10:31:30.831Z,985.86
2019-02-10T10:32:30.841Z,985.90
2019-02-10T10:33:31.994Z,985.81
2019-02-10T10:34:30.836Z,985.83
2019-02-10T10:35:30.919Z,985.83
2019-02-10T10:36:30.796Z,985.82
2019-02-10T10:37:30.778Z,985.80
2019-02-10T10:38:30.759Z,985.77
2019-02-10T10:39:30.794Z,985.78
2019-02-10T10:40:30.769Z,985.71
2019-02-10T10:41:30.724Z,985.78
2019-02-10T10:42:30.924Z,985.81
2019-02-10T10:43:30.697Z,985.83
2019-02-10T10:44:30.692Z,985.79
2019-02-10T10:45:30.751Z,985.91
2019-02-10T10:46:30.771Z,985.85
2019-02-10T10:47:30.747Z,985.87
2019-02-10T10:48:30.642Z,985.84
2019-02-10T10:49:30.675Z,985.87
2019-02-10T10:50:30.729Z,985.88
2019-02-10T10:51:30.633Z,985.91
2019-02-10T10:52:30.636Z,985.80
2019-02-10T10:53:30.590Z,985.89
2019-02-10T10:54:30.603Z,985.88
2019-02-10T10:55:30.642Z,985.84
2019-02-10T10:56:30.566Z,985.84
2019-02-10T10:57:30.573Z,985.89
2019-02-10T10:58:30.640Z,985.90
2019-02-10T10:59:30.540Z,985.87
2019-02-10T11:00:30.515Z,985.87
2019-02-10T11:01:30.548Z,985.86
2019-02-10T11:02:30.513Z,985.85
2019-02-10T11:03:30.505Z,985.88
2019-02-10T11:04:30.517Z,985.89
2019-02-10T11:05:30.484Z,985.79
2019-02-10T11:06:30.522Z,985.90
2019-02-10T11:07:30.535Z,985.84
2019-02-10T11:08:30.453Z,985.82
2019-02-10T11:09:35.417Z,985.78
2019-02-10T11:10:31.405Z,985.78
2019-02-10T11:11:30.399Z,985.76
2019-02-10T11:12:30.420Z,985.68
2019-02-10T11:13:30.375Z,985.67
2019-02-10T11:14:30.369Z,985.67
2019-02-10T11:15:30.361Z,985.67
2019-02-10T11:16:30.398Z,985.63
2019-02-10T11:17:30.365Z,985.61
2019-02-10T11:18:30.321Z,985.62
2019-02-10T11:19:30.336Z,985.67
2019-02-10T11:20:30.345Z,985.65
2019-02-10T11:21:30.339Z,985.55
2019-02-10T11:22:30.355Z,985.50
2019-02-10T11:23:30.265Z,985.53
2019-02-10T11:24:30.363Z,985.57
2019-02-10T11:25:30.248Z,985.39
2019-02-10T11:26:30.269Z,985.31
2019-02-10T11:27:30.370Z,985.24
2019-02-10T11:28:30.249Z,985.29
2019-02-10T11:29:30.212Z,985.25
2019-02-10T11:30:31.114Z,985.27
2019-02-10T11:31:30.192Z,985.25
2019-02-10T11:32:30.214Z,985.18
2019-02-10T11:33:30.254Z,985.16
2019-02-10T11:34:30.143Z,985.20
2019-02-10T11:35:30.236Z,985.14
2019-02-10T11:36:30.141Z,985.19
2019-02-10T11:37:31.156Z,985.21
2019-02-10T11:38:30.137Z,985.25
2019-02-10T11:39:30.091Z,985.26
2019-02-10T11:40:30.105Z,985.33
2019-02-10T11:41:30.070Z,985.28
2019-02-10T11:42:30.149Z,985.35
2019-02-10T11:43:30.067Z,985.35
2019-02-10T11:44:30.062Z,985.31
2019-02-10T11:45:30.044Z,985.32
2019-02-10T11:46:30.016Z,985.34
2019-02-10T11:47:30.024Z,985.31
2019-02-10T11:48:30.037Z,985.31
2019-02-10T11:49:29.985Z,985.31
2019-02-10T11:50:29.994Z,985.25
2019-02-10T11:51:29.956Z,985.26
2019-02-10T11:52:29.946Z,985.17
2019-02-10T11:53:29.981Z,985.10
2019-02-10T11:54:29.945Z,985.11
2019-02-10T11:55:29.915Z,985.11
2019-02-10T11:56:29.911Z,985.11
2019-02-10T11:57:29.891Z,985.16
2019-02-10T11:58:29.984Z,985.11
2019-02-10T11:59:29.878Z,985.03
2019-02-10T12:00:29.886Z,985.07
2019-02-10T12:01:29.936Z,985.06
2019-02-10T12:02:37.596Z,985.08
2019-02-10T12:03:30.912Z,985.09
2019-02-10T12:04:29.821Z,985.15
2019-02-10T12:05:29.813Z,985.14
2019-02-10T12:06:29.858Z,985.14
2019-02-10T12:07:29.785Z,985.13
2019-02-10T12:08:35.731Z,985.14
2019-02-10T12:09:30.927Z,985.07
2019-02-10T12:10:29.921Z,985.14
2019-02-10T12:11:29.746Z,985.22
2019-02-10T12:12:29.732Z,985.22
2019-02-10T12:13:29.869Z,985.28
2019-02-10T12:14:29.796Z,985.30
2019-02-10T12:15:29.707Z,985.36
2019-02-10T12:16:29.760Z,985.32
2019-02-10T12:17:29.716Z,985.33
2019-02-10T12:18:29.706Z,985.33
2019-02-10T12:19:31.383Z,985.29
2019-02-10T12:20:30.362Z,985.32
2019-02-10T12:21:29.761Z,985.27
2019-02-10T12:22:30.449Z,985.31
2019-02-10T12:23:29.613Z,985.31
2019-02-10T12:24:32.526Z,985.34
2019-02-10T12:25:29.604Z,985.23
2019-02-10T12:26:29.658Z,985.28